Time;durP1;ratioP1;P1;durP2;ratioP2;P2;SDS_P1;SDS_P2;PMS_P1;PMS_P2;Temp;Humidity;BMP_temperature;BMP_pressure;BME280_temperature;BME280_humidity;BME280_pressure;Samples;Min_cycle;Max_cycle;Signal;HPM_P1;HPM_P2
2022/11/18 00:02:05;;;;;;;106.90;32.87;;;;;;;10.87;100.00;98456.47;5093901;28;20257;-65
2022/11/18 00:04:31;;;;;;;44.47;30.77;;;;;;;10.92;100.00;98459.28;5093935;28;20249;-65
2022/11/18 00:06:58;;;;;;;109.00;32.53;;;;;;;10.98;100.00;98452.25;5094174;28;20196;-65
2022/11/18 00:09:25;;;;;;;84.77;30.43;;;;;;;10.94;100.00;98461.72;5093461;28;20200;-65
2022/11/18 00:14:36;;;;;;;42.63;29.50;;;;;;;10.99;100.00;98453.91;5074653;28;20216;-65
2022/11/18 00:17:06;;;;;;;40.57;28.73;;;;;;;11.04;100.00;98462.81;5073278;28;20273;-65
2022/11/18 00:19:34;;;;;;;50.90;28.33;;;;;;;11.04;100.00;98459.34;5073577;28;20250;-65
2022/11/18 00:22:01;;;;;;;55.93;27.87;;;;;;;11.08;100.00;98463.19;5073298;28;20196;-65
2022/11/18 00:24:28;;;;;;;60.73;27.63;;;;;;;10.96;100.00;98475.59;5072870;28;20204;-65
2022/11/18 00:26:56;;;;;;;49.13;28.37;;;;;;;10.86;100.00;98460.19;5072769;28;20196;-65
2022/11/18 00:29:25;;;;;;;63.77;27.07;;;;;;;10.70;100.00;98454.63;5077016;28;20731;-65
2022/11/18 00:31:51;;;;;;;82.83;29.13;;;;;;;10.80;100.00;98465.56;5092894;28;20671;-65
2022/11/18 00:34:19;;;;;;;67.87;27.57;;;;;;;10.71;100.00;98469.56;5093250;28;20254;-65
2022/11/18 00:36:47;;;;;;;87.23;29.13;;;;;;;10.65;100.00;98465.13;5093129;28;20195;-65
2022/11/18 00:39:16;;;;;;;85.43;27.30;;;;;;;10.51;100.00;98474.28;5093528;28;20256;-65
2022/11/18 00:44:27;;;;;;;52.30;27.57;;;;;;;10.30;100.00;98474.69;5093332;28;20190;-65
2022/11/18 00:46:54;;;;;;;72.33;28.50;;;;;;;10.32;100.00;98469.97;5092970;28;20242;-65
2022/11/18 00:49:23;;;;;;;80.50;28.03;;;;;;;10.13;100.00;98473.63;5092722;28;20626;-65
2022/11/18 00:51:49;;;;;;;55.43;28.53;;;;;;;10.12;100.00;98472.00;5093413;28;20195;-65
2022/11/18 00:54:16;;;;;;;49.70;30.80;;;;;;;10.19;100.00;98464.78;5093709;28;20219;-65
2022/11/18 00:56:43;;;;;;;56.73;31.17;;;;;;;10.23;100.00;98463.31;5093534;28;20191;-65
2022/11/18 00:59:10;;;;;;;59.83;28.73;;;;;;;10.18;100.00;98466.63;5093658;28;20191;-65
2022/11/18 01:01:36;;;;;;;99.03;28.40;;;;;;;10.18;100.00;98465.81;5092787;28;20252;-65
2022/11/18 01:04:03;;;;;;;43.20;27.13;;;;;;;10.16;100.00;98478.47;5092707;28;20187;-65
2022/11/18 01:06:31;;;;;;;41.97;27.90;;;;;;;10.16;100.00;98486.44;5092465;28;20241;-65
2022/11/18 01:08:58;;;;;;;44.53;26.23;;;;;;;10.22;100.00;98490.91;5092291;28;20221;-65
2022/11/18 01:14:09;;;;;;;64.47;25.83;;;;;;;10.31;100.00;98481.63;5077112;28;20595;-65
2022/11/18 01:16:35;;;;;;;34.67;26.50;;;;;;;10.28;100.00;98471.44;5072669;28;20187;-65
2022/11/18 01:19:02;;;;;;;52.53;25.47;;;;;;;10.35;100.00;98467.69;5072344;28;20192;-65
2022/11/18 01:21:31;;;;;;;40.63;26.23;;;;;;;10.36;100.00;98466.66;5071983;28;20191;-65
2022/11/18 01:23:57;;;;;;;107.33;26.10;;;;;;;10.43;100.00;98461.28;5071295;28;20191;-65
2022/11/18 01:26:24;;;;;;;95.63;25.67;;;;;;;10.47;100.00;98470.44;5072181;28;20667;-65
2022/11/18 01:28:55;;;;;;;101.17;25.10;;;;;;;10.52;100.00;98473.22;5072463;28;20191;-65
2022/11/18 01:31:21;;;;;;;41.90;24.97;;;;;;;10.56;100.00;98474.41;5072136;28;20243;-65
2022/11/18 01:33:48;;;;;;;101.07;28.60;;;;;;;10.58;100.00;98473.16;5072146;28;20249;-65
2022/11/18 01:36:16;;;;;;;124.43;26.50;;;;;;;10.54;100.00;98466.66;5072006;28;20220;-65
2022/11/18 01:38:45;;;;;;;38.00;25.17;;;;;;;10.49;100.00;98461.22;5072226;28;20253;-65
2022/11/18 01:41:12;;;;;;;81.40;25.13;;;;;;;10.46;100.00;98455.53;5072050;28;20191;-65
2022/11/18 01:43:50;;;;;;;28.47;23.87;;;;;;;10.49;100.00;98457.75;5071736;28;20199;-65
2022/11/18 01:46:17;;;;;;;37.40;25.10;;;;;;;10.57;100.00;98460.09;5071780;28;20195;-65
2022/11/18 01:48:47;;;;;;;49.00;24.87;;;;;;;10.60;100.00;98454.34;5071690;28;20560;-65
2022/11/18 01:51:16;;;;;;;49.73;25.10;;;;;;;10.65;100.00;98457.97;5072010;28;20249;-65
2022/11/18 01:53:49;;;;;;;47.07;23.87;;;;;;;10.72;100.00;98463.22;5092051;28;20282;-65
2022/11/18 01:56:21;;;;;;;70.17;23.40;;;;;;;10.73;100.00;98462.16;5091837;28;20261;-65
2022/11/18 01:58:52;;;;;;;45.00;22.80;;;;;;;10.73;100.00;98460.34;5091818;28;20213;-65
2022/11/18 02:01:19;;;;;;;40.30;22.53;;;;;;;10.73;100.00;98459.50;5093001;28;20188;-65
2022/11/18 02:03:48;;;;;;;30.93;22.90;;;;;;;10.76;100.00;98459.09;5092238;28;20245;-65
2022/11/18 02:06:15;;;;;;;49.27;23.27;;;;;;;10.76;100.00;98453.75;5092011;28;20256;-65
2022/11/18 02:08:44;;;;;;;36.83;21.80;;;;;;;10.64;100.00;98442.25;5091700;28;20241;-64
2022/11/18 02:11:49;;;;;;;32.70;21.80;;;;;;;10.68;100.00;98462.03;5091955;28;20278;-64
2022/11/18 02:14:02;;;;;;;25.77;22.67;;;;;;;10.75;100.00;98452.94;5091741;28;20191;-65
2022/11/18 02:16:41;;;;;;;34.10;20.30;;;;;;;10.79;100.00;98453.34;5091980;28;20218;-65
2022/11/18 02:19:22;;;;;;;35.37;23.60;;;;;;;10.80;100.00;98449.63;5091622;28;20728;-65
2022/11/18 02:22:03;;;;;;;36.10;22.83;;;;;;;10.81;100.00;98451.25;5092278;28;20187;-65
2022/11/18 02:24:42;;;;;;;25.27;22.40;;;;;;;10.81;100.00;98456.56;5091853;28;20191;-65
2022/11/18 02:27:53;;;;;;;37.10;21.50;;;;;;;10.76;100.00;98451.94;5092722;28;20635;-65
2022/11/18 02:30:22;;;;;;;39.97;22.23;;;;;;;10.83;100.00;98454.50;5079535;28;20235;-65
2022/11/18 02:32:53;;;;;;;43.50;21.00;;;;;;;10.83;100.00;98450.00;5071425;28;20253;-65
2022/11/18 02:35:26;;;;;;;56.20;21.77;;;;;;;10.85;100.00;98442.63;5072536;28;20261;-65
2022/11/18 02:37:59;;;;;;;123.70;22.90;;;;;;;10.89;100.00;98433.19;5074879;28;20185;-65
2022/11/18 02:40:30;;;;;;;55.23;21.23;;;;;;;10.92;100.00;98442.53;5075735;28;20188;-65
2022/11/18 02:43:01;;;;;;;48.93;20.70;;;;;;;10.93;100.00;98444.16;5074828;28;20211;-65
2022/11/18 02:45:30;;;;;;;78.90;22.33;;;;;;;10.95;100.00;98439.44;5074887;28;20245;-65
2022/11/18 02:48:03;;;;;;;27.83;21.90;;;;;;;11.00;100.00;98439.56;5074994;28;20188;-65
2022/11/18 02:50:32;;;;;;;50.80;20.70;;;;;;;10.94;100.00;98429.81;5075368;28;20241;-65
2022/11/18 02:53:03;;;;;;;44.53;21.47;;;;;;;10.91;100.00;98430.31;5089274;28;20195;-65
2022/11/18 02:55:34;;;;;;;36.30;21.10;;;;;;;10.82;100.00;98442.25;5094821;28;20268;-65
2022/11/18 02:58:03;;;;;;;35.13;21.00;;;;;;;10.84;100.00;98434.88;5095535;28;20225;-67
2022/11/18 03:00:32;;;;;;;30.27;21.37;;;;;;;10.86;100.00;98440.75;5095375;28;20191;-64
2022/11/18 03:02:59;;;;;;;58.17;21.13;;;;;;;10.92;100.00;98442.53;5094735;28;20248;-65
2022/11/18 03:05:33;;;;;;;43.37;21.33;;;;;;;10.93;100.00;98438.84;5094945;28;20592;-65
2022/11/18 03:08:08;;;;;;;24.23;20.30;;;;;;;10.98;100.00;98441.63;5095324;28;20271;-65
2022/11/18 03:10:42;;;;;;;52.73;21.73;;;;;;;11.01;100.00;98449.16;5095239;28;20248;-65
2022/11/18 03:13:16;;;;;;;42.77;20.90;;;;;;;11.03;100.00;98450.56;5088245;28;20183;-66
2022/11/18 03:15:54;;;;;;;59.17;20.30;;;;;;;11.05;100.00;98437.06;5074868;28;20244;-65
2022/11/18 03:18:28;;;;;;;39.77;21.03;;;;;;;11.05;100.00;98445.03;5074789;28;20235;-64
2022/11/18 03:21:00;;;;;;;101.57;22.17;;;;;;;11.05;100.00;98450.34;5074793;28;20241;-67
2022/11/18 03:23:35;;;;;;;73.47;20.60;;;;;;;10.97;100.00;98445.31;5095219;28;20184;-64
2022/11/18 03:26:07;;;;;;;84.30;22.03;;;;;;;10.80;100.00;98444.31;5095282;28;20187;-64
2022/11/18 03:28:38;;;;;;;83.83;20.33;;;;;;;10.78;100.00;98441.06;5094208;28;20183;-64
2022/11/18 03:31:12;;;;;;;83.80;20.00;;;;;;;10.74;100.00;98445.19;5076085;28;20183;-64
2022/11/18 03:33:43;;;;;;;69.53;19.50;;;;;;;10.59;100.00;98458.84;5073981;28;20256;-64
2022/11/18 03:36:12;;;;;;;76.33;20.37;;;;;;;10.49;100.00;98452.44;5074666;28;20219;-65
2022/11/18 03:38:43;;;;;;;27.60;21.37;;;;;;;10.49;100.00;98455.09;5074077;28;20279;-64
2022/11/18 03:41:15;;;;;;;63.57;21.20;;;;;;;10.55;100.00;98462.19;5074838;28;20226;-65
2022/11/18 03:43:47;;;;;;;73.53;22.17;;;;;;;10.57;100.00;98465.41;5074571;28;20242;-65
2022/11/18 03:46:18;;;;;;;62.90;21.93;;;;;;;10.56;100.00;98464.63;5073723;28;20188;-65
2022/11/18 03:48:49;;;;;;;58.37;21.73;;;;;;;10.57;100.00;98468.06;5073008;28;20609;-65
2022/11/18 03:51:21;;;;;;;30.30;20.13;;;;;;;10.60;100.00;98467.63;5074763;28;20602;-66
2022/11/18 03:53:53;;;;;;;87.70;22.73;;;;;;;10.60;100.00;98483.56;5094328;28;20244;-65
2022/11/18 03:56:25;;;;;;;29.87;19.30;;;;;;;10.62;100.00;98484.16;5094601;28;20260;-65
2022/11/18 03:58:57;;;;;;;30.13;20.57;;;;;;;10.70;100.00;98481.19;5094196;28;20184;-65
2022/11/18 04:01:34;;;;;;;33.87;20.63;;;;;;;10.73;100.00;98480.75;5093596;28;20184;-65
2022/11/18 04:04:01;;;;;;;30.90;20.43;;;;;;;10.75;100.00;98484.81;5094097;28;20188;-65
2022/11/18 04:06:34;;;;;;;49.23;20.00;;;;;;;10.79;100.00;98490.53;5093541;28;20730;-65
2022/11/18 04:09:06;;;;;;;89.50;22.87;;;;;;;10.82;100.00;98487.41;5093470;28;20183;-65
2022/11/18 04:14:24;;;;;;;59.17;21.53;;;;;;;10.70;100.00;98492.66;5076049;28;20208;-65
2022/11/18 04:16:52;;;;;;;43.50;20.83;;;;;;;10.72;100.00;98497.75;5073831;28;20236;-65
2022/11/18 04:19:19;;;;;;;120.93;25.10;;;;;;;10.69;100.00;98504.31;5072950;28;20270;-64
2022/11/18 04:21:47;;;;;;;167.87;24.93;;;;;;;10.65;100.00;98504.97;5073242;28;20196;-65
2022/11/18 04:24:14;;;;;;;30.13;22.17;;;;;;;10.66;100.00;98501.28;5073578;28;20196;-65
2022/11/18 04:26:41;;;;;;;108.30;25.90;;;;;;;10.66;100.00;98504.75;5073143;28;20195;-65
2022/11/18 04:29:07;;;;;;;116.07;24.77;;;;;;;10.52;100.00;98499.78;5075441;28;20203;-65
2022/11/18 04:31:34;;;;;;;76.73;24.20;;;;;;;10.54;100.00;98497.75;5093839;28;20195;-65
2022/11/18 04:34:02;;;;;;;41.90;24.13;;;;;;;10.54;100.00;98500.38;5093270;28;20244;-66
2022/11/18 04:36:29;;;;;;;59.60;23.30;;;;;;;10.56;100.00;98504.44;5092856;28;20690;-65
2022/11/18 04:38:55;;;;;;;37.00;23.07;;;;;;;10.53;100.00;98506.72;5093455;28;20191;-65
2022/11/18 04:41:54;;;;;;;56.50;24.33;;;;;;;10.59;100.00;98503.97;5093044;28;20255;-65
2022/11/18 04:44:11;;;;;;;36.53;24.50;;;;;;;10.61;100.00;98501.13;5092581;28;20199;-66
2022/11/18 04:46:39;;;;;;;53.90;25.00;;;;;;;10.52;100.00;98505.09;5093306;28;20199;-65
2022/11/18 04:49:08;;;;;;;69.97;24.90;;;;;;;10.47;100.00;98502.28;5093019;28;20279;-65
2022/11/18 04:51:34;;;;;;;34.30;24.70;;;;;;;10.38;100.00;98508.91;5092524;28;20191;-65
2022/11/18 04:54:01;;;;;;;74.93;27.03;;;;;;;10.27;100.00;98506.97;5092558;28;20724;-66
2022/11/18 04:56:28;;;;;;;83.97;26.80;;;;;;;10.12;100.00;98506.47;5092704;28;20698;-66
2022/11/18 04:58:54;;;;;;;68.63;25.43;;;;;;;10.01;100.00;98512.47;5091832;28;20641;-67
2022/11/18 05:01:21;;;;;;;104.10;28.43;;;;;;;9.96;100.00;98506.97;5092625;28;20248;-66
2022/11/18 05:03:48;;;;;;;93.27;26.80;;;;;;;9.85;100.00;98505.03;5093293;28;20195;-66
2022/11/18 05:06:16;;;;;;;73.67;25.80;;;;;;;9.82;100.00;98505.47;5092307;28;20245;-66
2022/11/18 05:08:43;;;;;;;83.87;26.00;;;;;;;9.81;100.00;98503.84;5092986;28;20187;-66
2022/11/18 05:13:54;;;;;;;43.60;25.80;;;;;;;9.69;100.00;98500.25;5079279;28;20190;-66
2022/11/18 05:16:20;;;;;;;48.03;25.77;;;;;;;9.75;100.00;98494.91;5083400;28;20223;-66
2022/11/18 05:18:47;;;;;;;71.80;25.63;;;;;;;9.78;100.00;98483.06;5093048;28;20231;-66
2022/11/18 05:21:14;;;;;;;58.53;26.17;;;;;;;9.78;100.00;98488.38;5092438;28;20281;-66
2022/11/18 05:23:42;;;;;;;43.03;27.43;;;;;;;9.80;100.00;98487.13;5088877;28;20213;-67
2022/11/18 05:26:10;;;;;;;65.70;29.03;;;;;;;9.83;100.00;98499.13;5074871;28;20257;-65
2022/11/18 05:28:38;;;;;;;47.40;28.30;;;;;;;9.92;100.00;98500.47;5071358;28;20192;-66
2022/11/18 05:31:07;;;;;;;48.07;30.57;;;;;;;9.98;100.00;98494.34;5081713;28;20183;-66
2022/11/18 05:33:33;;;;;;;44.03;28.27;;;;;;;10.09;100.00;98498.97;5082746;28;20198;-67
2022/11/18 05:36:03;;;;;;;62.60;32.33;;;;;;;10.10;100.00;98498.72;5071673;28;20272;-66
2022/11/18 05:38:32;;;;;;;72.73;32.90;;;;;;;10.03;100.00;98505.09;5071967;28;20592;-67
2022/11/18 05:41:00;;;;;;;75.77;36.43;;;;;;;10.01;100.00;98501.88;5072538;28;20192;-66
2022/11/18 05:43:25;;;;;;;70.57;35.43;;;;;;;10.08;100.00;98508.75;5071632;28;20629;-66
2022/11/18 05:45:53;;;;;;;47.87;32.73;;;;;;;10.11;100.00;98507.50;5071425;28;20199;-66
2022/11/18 05:48:20;;;;;;;39.40;30.10;;;;;;;10.16;100.00;98505.00;5072365;28;20196;-67
2022/11/18 05:50:48;;;;;;;49.50;28.93;;;;;;;10.20;100.00;98522.13;5071766;28;20618;-65
2022/11/18 05:53:16;;;;;;;64.03;29.13;;;;;;;10.25;100.00;98519.66;5082460;28;20191;-68
2022/11/18 05:55:50;;;;;;;63.40;30.40;;;;;;;10.27;100.00;98522.91;5071593;28;20216;-64
2022/11/18 05:58:18;;;;;;;48.40;28.77;;;;;;;10.18;100.00;98513.59;5071529;28;20607;-66
2022/11/18 06:00:47;;;;;;;65.20;28.20;;;;;;;10.27;100.00;98522.91;5071856;28;20245;-66
2022/11/18 06:03:18;;;;;;;45.00;28.27;;;;;;;10.29;100.00;98531.44;5071823;28;20257;-66
2022/11/18 06:05:46;;;;;;;57.97;30.17;;;;;;;10.34;100.00;98529.75;5071380;28;20183;-66
2022/11/18 06:08:16;;;;;;;44.77;27.57;;;;;;;10.39;100.00;98516.66;5071270;28;20215;-69
2022/11/18 06:10:44;;;;;;;70.70;28.80;;;;;;;10.47;100.00;98531.50;5084524;28;20192;-66
2022/11/18 06:13:17;;;;;;;85.93;29.13;;;;;;;10.41;100.00;98540.31;5091739;28;20237;-67
2022/11/18 06:15:46;;;;;;;72.47;28.43;;;;;;;10.31;100.00;98534.69;5089054;28;20203;-70
2022/11/18 06:18:19;;;;;;;58.00;28.37;;;;;;;10.33;100.00;98543.25;5082358;28;20303;-65
2022/11/18 06:20:46;;;;;;;54.57;27.97;;;;;;;10.36;100.00;98532.19;5095163;28;20324;-66
2022/11/18 06:23:13;;;;;;;35.47;17.93;;;;;;;10.80;100.00;98534.63;5096480;28;20287;-68
2022/11/18 06:25:41;;;;;;;38.57;24.77;;;;;;;11.71;100.00;98522.88;5093974;28;20253;-68
2022/11/18 06:28:12;;;;;;;29.77;20.43;;;;;;;11.95;100.00;98519.25;5095427;28;20222;-66
2022/11/18 06:30:38;;;;;;;49.23;28.07;;;;;;;12.08;100.00;98521.69;5094958;28;20246;-64
2022/11/18 06:33:07;;;;;;;46.53;28.07;;;;;;;12.00;100.00;98522.00;5095379;28;20611;-64
2022/11/18 06:35:34;;;;;;;48.73;27.03;;;;;;;11.98;100.00;98523.28;5095215;28;20289;-67
2022/11/18 06:38:00;;;;;;;40.67;25.87;;;;;;;11.95;100.00;98523.75;5095790;28;20202;-65
2022/11/18 06:40:27;;;;;;;64.87;24.43;;;;;;;11.75;100.00;98534.69;5095361;28;20721;-65
2022/11/18 06:45:38;;;;;;;72.43;24.37;;;;;;;11.44;100.00;98526.91;5083984;28;20297;-66
2022/11/18 06:48:05;;;;;;;68.40;24.13;;;;;;;11.27;100.00;98520.56;5094914;28;20257;-65
2022/11/18 06:50:33;;;;;;;33.40;23.27;;;;;;;11.25;100.00;98530.63;5094231;28;20192;-65
2022/11/18 06:53:00;;;;;;;32.43;19.93;;;;;;;11.14;100.00;98531.38;5094792;28;20721;-62
2022/11/18 06:55:27;;;;;;;41.80;23.17;;;;;;;11.48;100.00;98522.78;5093722;28;20663;-62
2022/11/18 06:57:56;;;;;;;48.10;30.27;;;;;;;12.03;100.00;98531.41;5095177;28;20200;-62
2022/11/18 07:00:22;;;;;;;46.30;29.47;;;;;;;12.09;100.00;98531.28;5093669;28;20246;-62
2022/11/18 07:02:49;;;;;;;83.63;29.87;;;;;;;11.98;100.00;98523.28;5094613;28;20658;-64
2022/11/18 07:05:16;;;;;;;67.17;27.50;;;;;;;11.88;100.00;98523.84;5079799;28;20662;-64
2022/11/18 07:07:44;;;;;;;55.63;27.40;;;;;;;11.82;100.00;98514.13;5074944;28;20198;-64
2022/11/18 07:10:10;;;;;;;48.80;27.93;;;;;;;11.78;100.00;98512.94;5075239;28;20199;-65
2022/11/18 07:12:37;;;;;;;52.07;28.50;;;;;;;11.76;100.00;98509.69;5091399;28;20191;-65
2022/11/18 07:15:04;;;;;;;51.40;28.80;;;;;;;11.76;100.00;98501.72;5095353;28;20630;-65
2022/11/18 07:17:31;;;;;;;59.40;29.90;;;;;;;11.81;100.00;98503.69;5085339;28;20241;-64
2022/11/18 07:19:58;;;;;;;57.93;30.13;;;;;;;11.82;100.00;98498.16;5085426;28;20194;-64
2022/11/18 07:22:26;;;;;;;56.10;30.20;;;;;;;11.88;100.00;98502.56;5093727;28;20189;-65
2022/11/18 07:24:54;;;;;;;52.60;29.17;;;;;;;11.93;100.00;98504.53;5094876;28;20214;-65
2022/11/18 07:27:20;;;;;;;53.30;28.77;;;;;;;11.91;100.00;98514.59;5094358;28;20205;-65
2022/11/18 07:29:47;;;;;;;69.07;31.90;;;;;;;11.77;100.00;98505.19;5093911;28;20694;-65
2022/11/18 07:32:14;;;;;;;57.73;30.33;;;;;;;11.78;100.00;98517.44;5094478;28;20619;-66
2022/11/18 07:34:41;;;;;;;24.10;15.67;;;;;;;12.05;100.00;98503.50;5094069;28;20201;-67
2022/11/18 07:37:07;;;;;;;48.83;28.27;;;;;;;12.60;100.00;98510.16;5093813;28;20603;-67
2022/11/18 07:39:34;;;;;;;66.23;27.13;;;;;;;12.52;100.00;98517.66;5094057;28;20250;-67
2022/11/18 07:42:02;;;;;;;52.17;28.10;;;;;;;12.64;100.00;98524.63;5093558;28;20745;-66
2022/11/18 07:44:29;;;;;;;44.07;23.67;;;;;;;12.66;100.00;98524.41;5093502;28;20247;-66
2022/11/18 07:46:55;;;;;;;52.83;25.33;;;;;;;12.52;99.50;98525.66;5093320;28;20202;-66
2022/11/18 07:49:22;;;;;;;36.73;19.93;;;;;;;12.49;100.00;98502.97;5093620;28;20198;-70
2022/11/18 07:51:49;;;;;;;37.97;23.83;;;;;;;13.03;100.00;98534.56;5091956;28;20193;-66
2022/11/18 07:54:16;;;;;;;33.90;20.60;;;;;;;13.40;100.00;98530.53;5093393;28;20192;-69
2022/11/18 07:56:43;;;;;;;56.80;32.27;;;;;;;13.65;97.08;98525.69;5093070;28;20218;-71
2022/11/18 07:59:11;;;;;;;46.63;25.30;;;;;;;13.62;93.66;98518.16;5094105;28;20195;-72
2022/11/18 08:01:38;;;;;;;42.67;25.30;;;;;;;13.52;94.33;98517.94;5093677;28;20232;-70
2022/11/18 08:04:06;;;;;;;40.53;23.20;;;;;;;13.38;93.64;98519.28;5094600;28;20600;-71
2022/11/18 08:06:34;;;;;;;38.87;23.40;;;;;;;13.10;94.29;98521.91;5093937;28;20195;-70
2022/11/18 08:09:01;;;;;;;41.30;23.37;;;;;;;13.00;96.65;98508.41;5086493;28;20229;-70
2022/11/18 08:11:27;;;;;;;43.13;23.17;;;;;;;12.94;95.94;98509.28;5077738;28;20200;-70
2022/11/18 08:13:54;;;;;;;38.53;21.60;;;;;;;12.93;98.03;98507.66;5093215;28;20191;-69
2022/11/18 08:16:24;;;;;;;37.37;22.47;;;;;;;12.89;97.72;98511.03;5092971;28;20291;-71
2022/11/18 08:18:52;;;;;;;41.73;24.33;;;;;;;12.87;98.21;98495.28;5074232;28;20189;-72
2022/11/18 08:21:20;;;;;;;39.30;23.30;;;;;;;12.90;98.15;98524.13;5093458;28;20249;-72
2022/11/18 08:23:50;;;;;;;41.37;23.53;;;;;;;12.87;96.86;98511.25;5093194;28;20191;-69
2022/11/18 08:26:17;;;;;;;45.17;25.60;;;;;;;12.75;96.47;98512.34;5093486;28;20568;-69
2022/11/18 08:28:45;;;;;;;42.70;24.47;;;;;;;12.72;98.69;98510.94;5093098;28;20201;-69
2022/11/18 08:31:12;;;;;;;39.43;24.10;;;;;;;12.72;98.56;98510.13;5073552;28;20191;-69
2022/11/18 08:33:40;;;;;;;55.53;26.60;;;;;;;12.66;97.74;98517.19;5071946;28;20191;-68
2022/11/18 08:36:09;;;;;;;52.30;28.57;;;;;;;12.58;98.44;98509.56;5072816;28;20188;-68
2022/11/18 08:38:35;;;;;;;46.30;26.67;;;;;;;12.51;100.00;98514.22;5072438;28;20255;-68
2022/11/18 08:41:04;;;;;;;50.73;28.00;;;;;;;12.49;100.00;98510.94;5072359;28;20735;-68
2022/11/18 08:43:31;;;;;;;72.10;36.50;;;;;;;12.34;100.00;98513.28;5072340;28;20745;-68
2022/11/18 08:45:58;;;;;;;78.13;43.33;;;;;;;12.27;100.00;98501.94;5072322;28;20198;-68
2022/11/18 08:48:25;;;;;;;75.13;39.97;;;;;;;12.35;100.00;98509.56;5073432;28;20212;-69
2022/11/18 08:50:53;;;;;;;64.03;34.03;;;;;;;12.43;100.00;98508.41;5072351;28;20198;-69
2022/11/18 08:53:20;;;;;;;65.23;34.90;;;;;;;12.55;100.00;98504.72;5089832;28;20548;-70
2022/11/18 08:55:47;;;;;;;67.53;35.23;;;;;;;12.62;100.00;98505.38;5092349;28;20749;-68
2022/11/18 08:58:14;;;;;;;62.83;33.83;;;;;;;12.55;100.00;98499.38;5092733;28;20225;-72
2022/11/18 09:00:40;;;;;;;76.67;39.83;;;;;;;12.42;100.00;98502.25;5092388;28;20678;-69
2022/11/18 09:03:07;;;;;;;76.77;39.27;;;;;;;12.38;100.00;98493.16;5092578;28;20189;-69
2022/11/18 09:05:34;;;;;;;78.13;41.37;;;;;;;12.41;100.00;98487.34;5092520;28;20200;-70
2022/11/18 09:08:02;;;;;;;75.97;38.70;;;;;;;12.40;100.00;98491.03;5092712;28;20195;-70
2022/11/18 09:10:29;;;;;;;66.83;35.20;;;;;;;12.40;100.00;98477.72;5092853;28;20619;-69
2022/11/18 09:12:55;;;;;;;65.03;34.83;;;;;;;12.53;100.00;98472.16;5103208;28;20193;-70
2022/11/18 09:15:22;;;;;;;68.33;37.40;;;;;;;12.65;100.00;98467.63;5092661;28;20190;-69
2022/11/18 09:17:49;;;;;;;62.67;36.00;;;;;;;12.60;98.80;98469.38;5079987;28;20267;-71
2022/11/18 09:20:17;;;;;;;64.80;36.57;;;;;;;12.65;100.00;98467.63;5071923;28;20188;-70
2022/11/18 09:22:43;;;;;;;69.50;36.97;;;;;;;12.77;100.00;98465.75;5072247;28;20198;-70
2022/11/18 09:25:12;;;;;;;58.43;34.27;;;;;;;12.87;100.00;98460.63;5071765;28;20199;-71
2022/11/18 09:27:38;;;;;;;66.47;35.80;;;;;;;12.87;99.07;98454.50;5071908;28;20206;-70
2022/11/18 09:30:06;;;;;;;65.63;37.90;;;;;;;12.59;98.41;98447.28;5081675;28;20199;-71
2022/11/18 09:32:33;;;;;;;64.40;37.07;;;;;;;12.29;100.00;98440.47;5091579;28;20195;-70
2022/11/18 09:34:59;;;;;;;71.53;38.57;;;;;;;12.40;100.00;98443.13;5092086;28;20269;-72
2022/11/18 09:37:26;;;;;;;72.90;37.90;;;;;;;12.36;100.00;98439.28;5091759;28;20221;-70
2022/11/18 09:39:53;;;;;;;76.20;37.73;;;;;;;12.54;100.00;98427.69;5091307;28;20267;-68
2022/11/18 09:42:33;;;;;;;76.20;38.20;;;;;;;12.64;100.00;98438.56;5091735;28;20189;-69
2022/11/18 09:45:10;;;;;;;74.60;38.83;;;;;;;12.70;100.00;98427.75;5090999;28;20219;-71
2022/11/18 09:47:37;;;;;;;80.40;38.47;;;;;;;12.67;100.00;98416.78;5092912;28;20247;-69
2022/11/18 09:50:07;;;;;;;70.90;37.43;;;;;;;12.75;100.00;98406.56;5092308;28;20634;-69
2022/11/18 09:52:38;;;;;;;72.87;38.23;;;;;;;12.89;100.00;98402.59;5080874;28;20247;-70
2022/11/18 09:55:12;;;;;;;77.37;42.40;;;;;;;12.99;100.00;98394.78;5071752;28;20190;-69
2022/11/18 09:57:46;;;;;;;77.60;40.47;;;;;;;13.04;99.48;98394.91;5072526;28;20299;-68
2022/11/18 10:00:17;;;;;;;72.80;40.63;;;;;;;13.17;99.55;98397.28;5071898;28;20219;-71
2022/11/18 10:02:52;;;;;;;72.87;39.07;;;;;;;13.24;99.01;98403.25;5071515;28;20192;-72
2022/11/18 10:05:22;;;;;;;73.27;38.63;;;;;;;13.27;98.74;98400.13;5086023;28;20187;-72
2022/11/18 10:08:03;;;;;;;66.70;37.30;;;;;;;13.34;98.88;98406.13;5090645;28;20206;-69
2022/11/18 10:10:38;;;;;;;72.43;39.50;;;;;;;13.38;98.46;98403.78;5089800;28;20270;-69
2022/11/18 10:13:14;;;;;;;72.37;39.63;;;;;;;13.24;98.55;98394.47;5083686;28;20202;-65
2022/11/18 10:15:51;;;;;;;71.83;39.47;;;;;;;13.06;98.06;98390.13;5071581;28;20187;-64
2022/11/18 10:18:28;;;;;;;69.37;40.13;;;;;;;13.00;100.00;98384.97;5074268;28;20655;-65
2022/11/18 10:21:00;;;;;;;63.90;36.17;;;;;;;13.10;99.73;98391.28;5071662;28;20190;-63
2022/11/18 10:23:31;;;;;;;72.50;38.57;;;;;;;13.24;99.82;98392.59;5072188;28;20256;-64
2022/11/18 10:25:58;;;;;;;60.70;35.53;;;;;;;13.32;99.79;98378.88;5072762;28;20233;-66
2022/11/18 10:28:29;;;;;;;61.27;37.17;;;;;;;13.50;99.92;98384.00;5071995;28;20320;-66
2022/11/18 10:31:04;;;;;;;69.33;36.33;;;;;;;13.52;98.14;98355.22;5088310;28;20194;-66
2022/11/18 10:33:31;;;;;;;62.17;36.40;;;;;;;13.69;99.24;98350.69;5091609;28;20263;-65
2022/11/18 10:36:26;;;;;;;79.70;37.90;;;;;;;13.74;97.59;98353.44;5091521;28;20257;-65
2022/11/18 10:39:10;;;;;;;65.43;36.60;;;;;;;13.56;98.10;98337.66;5092423;28;20219;-68
2022/11/18 10:41:41;;;;;;;68.43;35.67;;;;;;;13.65;98.63;98346.09;5091452;28;20183;-68
2022/11/18 10:44:30;;;;;;;67.20;37.43;;;;;;;13.69;98.82;98336.53;5092249;28;20261;-68
2022/11/18 10:47:16;;;;;;;69.47;37.73;;;;;;;13.59;99.07;98353.19;5091457;28;20186;-67
2022/11/18 10:49:43;;;;;;;80.80;40.00;;;;;;;13.60;99.63;98335.34;5091371;28;20194;-66
2022/11/18 10:52:11;;;;;;;80.50;39.90;;;;;;;13.19;100.00;98325.84;5083789;28;20184;-65
2022/11/18 10:54:38;;;;;;;84.87;43.47;;;;;;;13.31;100.00;98334.59;5071328;28;20192;-65
2022/11/18 10:57:09;;;;;;;98.63;49.03;;;;;;;13.41;100.00;98344.63;5071502;28;20223;-65
2022/11/18 10:59:42;;;;;;;120.60;56.53;;;;;;;13.36;100.00;98348.00;5074900;28;20191;-66
2022/11/18 11:02:19;;;;;;;95.67;49.20;;;;;;;13.33;100.00;98329.84;5075104;28;20191;-66
2022/11/18 11:04:47;;;;;;;102.40;47.87;;;;;;;13.35;100.00;98338.41;5074004;28;20180;-66
2022/11/18 11:07:16;;;;;;;100.07;49.30;;;;;;;13.48;100.00;98340.75;5074650;28;20253;-67
2022/11/18 11:09:44;;;;;;;101.20;49.87;;;;;;;13.43;100.00;98315.88;5074214;28;20192;-66
2022/11/18 11:12:14;;;;;;;108.70;51.13;;;;;;;13.54;100.00;98318.44;5084417;28;20187;-67
2022/11/18 11:14:51;;;;;;;102.20;50.80;;;;;;;13.57;100.00;98331.31;5074611;28;20188;-66
2022/11/18 11:17:22;;;;;;;104.10;49.70;;;;;;;13.49;100.00;98321.03;5077330;28;20231;-67
2022/11/18 11:20:04;;;;;;;105.67;49.10;;;;;;;13.46;100.00;98305.50;5074563;28;20246;-66
2022/11/18 11:22:31;;;;;;;103.90;48.67;;;;;;;13.55;100.00;98312.06;5075153;28;20188;-66
2022/11/18 11:24:58;;;;;;;101.93;48.13;;;;;;;13.63;100.00;98316.97;5074031;28;20192;-67
2022/11/18 11:27:43;;;;;;;100.83;48.63;;;;;;;13.35;100.00;98293.06;5074024;28;20626;-70
2022/11/18 11:30:18;;;;;;;106.03;50.87;;;;;;;13.51;100.00;98302.91;5084987;28;20190;-69
2022/11/18 11:33:11;;;;;;;119.57;53.17;;;;;;;13.47;100.00;98291.13;5094108;28;20182;-71
2022/11/18 11:35:46;;;;;;;100.43;50.33;;;;;;;13.57;100.00;98293.94;5094031;28;20182;-71
2022/11/18 11:38:19;;;;;;;108.83;50.63;;;;;;;13.71;100.00;98297.88;5094050;28;20281;-71